Time;durP1;ratioP1;P1;durP2;ratioP2;P2;SDS_P1;SDS_P2;PMS_P1;PMS_P2;Temp;Humidity;BMP_temperature;BMP_pressure;BME280_temperature;BME280_humidity;BME280_pressure;Samples;Min_cycle;Max_cycle;Signal;HPM_P1;HPM_P2
2021/06/10 00:01:40;;;;;;;13.70;12.30;;;16.80;99.90;;;;;;4974631;28;20177;-67
2021/06/10 00:04:05;;;;;;;13.23;12.23;;;16.70;99.90;;;;;;4974375;28;20176;-65
2021/06/10 00:06:31;;;;;;;14.57;13.30;;;16.80;99.90;;;;;;4974459;28;20303;-67
2021/06/10 00:08:56;;;;;;;12.93;11.60;;;16.70;99.90;;;;;;4973809;28;20211;-67
2021/06/10 00:11:22;;;;;;;13.50;12.40;;;16.80;99.90;;;;;;4974367;28;20188;-65
2021/06/10 00:13:48;;;;;;;14.47;13.20;;;16.80;99.90;;;;;;4973998;28;20191;-68
2021/06/10 00:16:16;;;;;;;13.70;12.60;;;16.80;99.90;;;;;;4974544;28;20180;-67
2021/06/10 00:18:42;;;;;;;13.47;12.47;;;16.80;99.90;;;;;;4964452;28;20220;-67
2021/06/10 00:21:08;;;;;;;14.60;13.43;;;16.80;99.90;;;;;;4954981;28;20789;-67
2021/06/10 00:23:33;;;;;;;16.90;12.43;;;16.80;99.90;;;;;;4955234;29;20428;-68
2021/06/10 00:25:59;;;;;;;15.37;14.03;;;16.70;99.90;;;;;;4955006;28;20169;-67
2021/06/10 00:28:24;;;;;;;13.20;12.17;;;16.70;99.90;;;;;;4953965;29;20722;-67
2021/06/10 00:30:50;;;;;;;13.37;12.07;;;16.60;99.90;;;;;;4954889;29;20263;-67
2021/06/10 00:33:16;;;;;;;14.27;13.13;;;16.60;99.90;;;;;;4954756;29;20173;-67
2021/06/10 00:35:41;;;;;;;15.17;13.83;;;16.60;99.90;;;;;;4954682;29;20236;-67
2021/06/10 00:38:07;;;;;;;14.30;13.07;;;16.60;99.90;;;;;;4953605;29;20593;-67
2021/06/10 00:40:34;;;;;;;13.17;12.17;;;16.60;99.90;;;;;;4953263;29;20185;-67
2021/06/10 00:43:00;;;;;;;14.07;12.87;;;16.60;99.90;;;;;;4955005;28;20177;-67
2021/06/10 00:45:27;;;;;;;14.33;13.13;;;16.50;99.90;;;;;;4954678;29;20946;-67
2021/06/10 00:47:53;;;;;;;14.03;12.83;;;16.50;99.90;;;;;;4953853;28;20646;-67
2021/06/10 00:50:24;;;;;;;15.30;14.10;;;16.50;99.90;;;;;;4954316;29;20435;-67
2021/06/10 00:52:50;;;;;;;13.70;12.60;;;16.50;99.90;;;;;;4954430;28;20800;-67
2021/06/10 00:55:16;;;;;;;12.77;11.77;;;16.40;99.90;;;;;;4954432;28;20935;-67
2021/06/10 00:57:41;;;;;;;14.27;13.13;;;16.50;99.90;;;;;;4954031;29;20524;-67
2021/06/10 01:00:11;;;;;;;14.77;13.50;;;16.40;99.90;;;;;;4954238;29;20209;-67
2021/06/10 01:02:37;;;;;;;13.40;12.30;;;16.40;99.90;;;;;;4954289;28;20181;-67
2021/06/10 01:05:05;;;;;;;15.17;13.33;;;16.30;99.90;;;;;;4954081;28;20423;-67
2021/06/10 01:07:42;;;;;;;15.30;13.87;;;16.30;99.90;;;;;;4953220;28;20188;-67
2021/06/10 01:10:32;;;;;;;14.47;13.33;;;16.30;99.90;;;;;;4952645;29;20432;-67
2021/06/10 01:13:30;;;;;;;15.13;13.93;;;16.30;99.90;;;;;;4953565;29;20527;-67
2021/06/10 01:15:59;;;;;;;13.60;12.50;;;16.30;99.90;;;;;;4953915;28;20428;-67
2021/06/10 01:18:26;;;;;;;14.30;13.10;;;16.30;99.90;;;;;;4960297;28;20450;-67
2021/06/10 01:20:54;;;;;;;21.20;13.43;;;16.30;99.90;;;;;;4973089;28;20784;-67
2021/06/10 01:23:29;;;;;;;14.10;13.00;;;16.30;99.90;;;;;;4973122;28;20427;-67
2021/06/10 01:26:19;;;;;;;13.93;12.47;;;16.30;99.90;;;;;;4972408;28;20427;-67
2021/06/10 01:28:46;;;;;;;12.67;11.67;;;16.30;99.90;;;;;;4972224;28;20439;-67
2021/06/10 01:31:14;;;;;;;13.97;12.87;;;16.30;99.90;;;;;;4972940;28;20420;-67
2021/06/10 01:33:42;;;;;;;13.73;12.70;;;16.20;99.90;;;;;;4972990;28;20427;-67
2021/06/10 01:36:20;;;;;;;13.63;12.27;;;16.20;99.90;;;;;;4972783;28;20859;-67
2021/06/10 01:38:48;;;;;;;14.30;12.77;;;16.20;99.90;;;;;;4971859;28;20827;-67
2021/06/10 01:41:15;;;;;;;14.40;13.00;;;16.10;99.90;;;;;;4972751;28;20794;-67
2021/06/10 01:43:42;;;;;;;14.90;13.60;;;16.00;99.90;;;;;;4972764;28;20506;-67
2021/06/10 01:46:11;;;;;;;14.93;13.63;;;16.00;99.90;;;;;;4972684;28;21045;-67
2021/06/10 01:48:37;;;;;;;14.73;13.53;;;16.00;99.90;;;;;;4971928;28;20444;-67
2021/06/10 01:51:04;;;;;;;15.00;13.40;;;15.90;99.90;;;;;;4972618;28;20837;-67
2021/06/10 01:53:30;;;;;;;13.47;12.27;;;15.90;99.90;;;;;;4972428;28;20438;-67
2021/06/10 01:55:58;;;;;;;15.77;14.40;;;15.90;99.90;;;;;;4972505;28;20416;-67
2021/06/10 01:58:25;;;;;;;13.70;12.50;;;15.90;99.90;;;;;;4971720;28;20188;-68
2021/06/10 02:00:52;;;;;;;13.30;12.00;;;15.80;99.90;;;;;;4972489;28;20443;-67
2021/06/10 02:03:20;;;;;;;13.10;12.10;;;15.80;99.90;;;;;;4972478;28;20518;-67
2021/06/10 02:05:46;;;;;;;15.03;13.53;;;15.80;99.90;;;;;;4972268;28;20416;-67
2021/06/10 02:08:14;;;;;;;13.27;12.27;;;15.80;99.90;;;;;;4971739;28;20479;-65
2021/06/10 02:10:42;;;;;;;14.07;12.77;;;15.80;99.90;;;;;;4972502;28;20507;-65
2021/06/10 02:13:08;;;;;;;13.90;12.77;;;15.70;99.90;;;;;;4972399;28;20412;-65
2021/06/10 02:15:35;;;;;;;14.80;13.60;;;15.70;99.90;;;;;;4972477;28;20426;-65
2021/06/10 02:18:01;;;;;;;15.33;14.13;;;15.60;99.90;;;;;;4967378;28;20432;-65
2021/06/10 02:20:27;;;;;;;15.83;12.83;;;15.60;99.90;;;;;;4952729;28;20491;-67
2021/06/10 02:22:53;;;;;;;14.73;13.33;;;15.60;99.90;;;;;;4952852;29;20178;-67
2021/06/10 02:25:19;;;;;;;14.93;13.63;;;15.60;99.90;;;;;;4952867;28;20237;-65
2021/06/10 02:27:45;;;;;;;14.43;13.33;;;15.60;99.90;;;;;;4952386;28;20826;-67
2021/06/10 02:30:12;;;;;;;13.47;12.17;;;15.70;99.90;;;;;;4952576;29;20429;-67
2021/06/10 02:32:38;;;;;;;13.40;12.30;;;15.80;99.90;;;;;;4952620;28;20639;-67
2021/06/10 02:35:05;;;;;;;14.00;12.90;;;15.70;99.90;;;;;;4952500;29;20439;-67
2021/06/10 02:37:31;;;;;;;15.80;13.07;;;15.60;99.90;;;;;;4951716;28;20212;-67
2021/06/10 02:39:57;;;;;;;16.93;12.80;;;15.50;99.90;;;;;;4952737;29;20554;-67
2021/06/10 02:42:23;;;;;;;13.40;12.40;;;15.50;99.90;;;;;;4952939;28;20318;-67
2021/06/10 02:44:54;;;;;;;14.33;13.03;;;15.50;99.90;;;;;;4952786;28;20788;-65
2021/06/10 02:47:21;;;;;;;18.13;12.70;;;15.50;99.90;;;;;;4951999;28;20428;-65
2021/06/10 02:49:48;;;;;;;14.30;12.83;;;15.40;99.90;;;;;;4952933;28;20454;-65
2021/06/10 02:52:16;;;;;;;14.83;13.73;;;15.40;99.90;;;;;;4952571;28;20432;-65
2021/06/10 02:54:44;;;;;;;16.50;14.90;;;15.40;99.90;;;;;;4952492;28;20491;-65
2021/06/10 02:57:10;;;;;;;14.07;13.00;;;15.40;99.90;;;;;;4952299;28;20507;-65
2021/06/10 02:59:40;;;;;;;16.27;14.63;;;15.40;99.90;;;;;;4952050;28;20470;-65
2021/06/10 03:02:06;;;;;;;14.27;13.13;;;15.40;99.90;;;;;;4952445;28;20424;-65
2021/06/10 03:04:32;;;;;;;14.07;12.90;;;15.50;99.90;;;;;;4952772;28;20431;-65
2021/06/10 03:06:59;;;;;;;15.07;13.67;;;15.40;99.90;;;;;;4952434;28;20173;-67
2021/06/10 03:09:25;;;;;;;14.47;13.27;;;15.40;99.90;;;;;;4951695;28;20539;-67
2021/06/10 03:11:51;;;;;;;15.47;14.07;;;15.50;99.90;;;;;;4952374;28;20428;-68
2021/06/10 03:14:17;;;;;;;15.63;14.33;;;15.40;99.90;;;;;;4952294;29;20432;-65
2021/06/10 03:16:46;;;;;;;15.93;14.73;;;15.30;99.90;;;;;;4952752;28;20208;-65
2021/06/10 03:19:12;;;;;;;14.77;13.57;;;15.30;99.90;;;;;;4964463;28;20463;-67
2021/06/10 03:21:38;;;;;;;15.07;13.77;;;15.30;99.90;;;;;;4971519;28;20428;-67
2021/06/10 03:24:04;;;;;;;14.50;13.20;;;15.30;99.90;;;;;;4971449;28;20844;-67
2021/06/10 03:26:33;;;;;;;15.90;14.47;;;15.30;99.90;;;;;;4971587;28;20172;-67
2021/06/10 03:28:58;;;;;;;15.40;14.20;;;15.20;99.90;;;;;;4969594;28;20451;-67
2021/06/10 03:31:25;;;;;;;15.80;14.50;;;15.30;99.90;;;;;;4971491;28;20477;-67
2021/06/10 03:33:51;;;;;;;15.60;14.30;;;15.30;99.90;;;;;;4971502;28;20175;-67
2021/06/10 03:36:19;;;;;;;14.67;13.37;;;15.30;99.90;;;;;;4971467;28;20482;-67
2021/06/10 03:38:46;;;;;;;15.23;13.93;;;15.30;99.90;;;;;;4970483;28;20499;-68
2021/06/10 03:41:12;;;;;;;15.30;14.00;;;15.30;99.90;;;;;;4971433;28;20511;-65
2021/06/10 03:43:40;;;;;;;16.47;15.07;;;15.30;99.90;;;;;;4971436;28;20415;-65
2021/06/10 03:46:07;;;;;;;16.00;14.70;;;15.30;99.90;;;;;;4971277;28;20952;-68
2021/06/10 03:48:34;;;;;;;15.60;14.27;;;15.30;99.90;;;;;;4971136;28;20432;-67
2021/06/10 03:51:00;;;;;;;14.23;13.00;;;15.40;99.90;;;;;;4975093;28;20753;-67
2021/06/10 03:53:26;;;;;;;15.43;14.20;;;15.50;99.90;;;;;;4975213;28;20422;-67
2021/06/10 03:55:51;;;;;;;15.27;13.60;;;15.50;99.90;;;;;;4974902;28;20808;-67
2021/06/10 03:58:21;;;;;;;15.90;14.50;;;15.50;99.90;;;;;;4973637;28;20192;-67
2021/06/10 04:00:47;;;;;;;15.83;14.53;;;15.50;99.90;;;;;;4974889;28;20259;-65
2021/06/10 04:03:13;;;;;;;17.97;14.30;;;15.60;99.90;;;;;;4974834;28;20423;-67
2021/06/10 04:05:38;;;;;;;15.00;13.70;;;15.70;99.90;;;;;;4974495;28;20430;-67
2021/06/10 04:08:04;;;;;;;16.27;14.77;;;15.80;99.90;;;;;;4973654;28;20188;-65
2021/06/10 04:10:30;;;;;;;14.73;12.80;;;15.80;99.90;;;;;;4974531;28;20720;-67
2021/06/10 04:12:55;;;;;;;16.13;14.63;;;15.80;99.90;;;;;;4974399;28;20180;-67
2021/06/10 04:15:21;;;;;;;14.90;13.70;;;15.90;99.90;;;;;;4974536;28;20173;-67
2021/06/10 04:17:46;;;;;;;16.00;14.70;;;16.00;99.90;;;;;;4971692;28;20608;-67
2021/06/10 04:20:13;;;;;;;15.60;14.33;;;16.10;99.90;;;;;;4954974;29;20610;-67
2021/06/10 04:22:39;;;;;;;13.83;12.83;;;16.20;99.90;;;;;;4955075;29;20177;-67
2021/06/10 04:25:06;;;;;;;14.80;13.60;;;16.30;99.90;;;;;;4954937;28;20793;-65
2021/06/10 04:27:32;;;;;;;15.97;14.30;;;16.30;99.90;;;;;;4954011;28;20420;-65
2021/06/10 04:29:57;;;;;;;15.20;13.60;;;16.40;99.90;;;;;;4954865;28;20436;-65
2021/06/10 04:32:23;;;;;;;16.93;15.63;;;16.40;99.90;;;;;;4955049;29;20256;-67
2021/06/10 04:34:48;;;;;;;15.30;14.07;;;16.50;99.90;;;;;;4954741;29;20193;-67
2021/06/10 04:37:14;;;;;;;15.73;14.37;;;16.60;99.90;;;;;;4954229;29;20180;-67
2021/06/10 04:39:39;;;;;;;17.80;16.20;;;16.60;99.90;;;;;;4954336;29;20220;-67
2021/06/10 04:42:05;;;;;;;16.00;14.70;;;16.70;99.90;;;;;;4954450;29;20548;-67
2021/06/10 04:44:31;;;;;;;14.53;13.03;;;16.60;99.90;;;;;;4954395;28;20177;-67
2021/06/10 04:46:56;;;;;;;15.20;13.97;;;16.60;99.90;;;;;;4954709;29;20416;-67
2021/06/10 04:49:22;;;;;;;16.37;15.00;;;16.60;99.90;;;;;;4953756;29;20263;-67
2021/06/10 04:51:48;;;;;;;14.87;13.57;;;16.70;99.90;;;;;;4954515;29;20184;-67
2021/06/10 04:54:13;;;;;;;15.97;14.47;;;16.70;99.90;;;;;;4954444;29;20647;-67
2021/06/10 04:56:39;;;;;;;16.20;14.77;;;16.80;99.90;;;;;;4954511;29;20176;-67
2021/06/10 04:59:04;;;;;;;15.87;14.53;;;16.90;99.90;;;;;;4953446;29;20244;-67
2021/06/10 05:01:30;;;;;;;16.73;15.20;;;17.10;99.90;;;;;;4953089;28;20177;-67
2021/06/10 05:03:55;;;;;;;15.07;13.70;;;17.20;99.90;;;;;;4954102;29;20179;-67
2021/06/10 05:06:21;;;;;;;16.00;14.37;;;17.40;99.90;;;;;;4954080;29;20483;-67
2021/06/10 05:08:46;;;;;;;13.93;12.83;;;17.50;99.90;;;;;;4953503;29;20201;-67
2021/06/10 05:11:12;;;;;;;14.67;13.53;;;17.60;99.90;;;;;;4953977;29;20558;-67
2021/06/10 05:13:38;;;;;;;14.27;13.10;;;17.70;99.90;;;;;;4953960;29;20189;-68
2021/06/10 05:16:04;;;;;;;14.50;13.20;;;17.80;99.90;;;;;;4954156;28;20180;-67
2021/06/10 05:18:29;;;;;;;13.83;12.73;;;17.90;99.90;;;;;;4961178;28;20444;-67
2021/06/10 05:20:55;;;;;;;14.13;13.00;;;18.10;99.90;;;;;;4973183;28;20423;-67
2021/06/10 05:23:21;;;;;;;15.93;14.43;;;18.30;99.90;;;;;;4973094;28;20173;-67
2021/06/10 05:25:46;;;;;;;15.50;14.20;;;18.50;99.90;;;;;;4973004;28;20179;-67
2021/06/10 05:28:12;;;;;;;15.30;13.80;;;18.60;99.90;;;;;;4971210;28;20227;-68
2021/06/10 05:30:37;;;;;;;16.63;15.07;;;18.70;99.90;;;;;;4973136;28;20179;-67
2021/06/10 05:33:03;;;;;;;14.10;12.77;;;18.80;99.90;;;;;;4973133;28;20721;-67
2021/06/10 05:35:29;;;;;;;15.23;13.93;;;18.90;99.90;;;;;;4972934;28;20180;-68
2021/06/10 05:37:54;;;;;;;15.60;14.30;;;18.90;99.90;;;;;;4985566;28;20566;-66
2021/06/10 05:40:20;;;;;;;14.97;13.67;;;19.00;99.90;;;;;;4981157;28;20192;-68
2021/06/10 05:42:45;;;;;;;15.40;13.80;;;19.00;99.90;;;;;;4983468;28;20248;-66
2021/06/10 05:45:11;;;;;;;14.60;13.10;;;19.20;99.90;;;;;;4979792;28;20175;-66
2021/06/10 05:47:37;;;;;;;14.73;13.37;;;19.40;99.90;;;;;;4983464;28;20176;-67
2021/06/10 05:50:04;;;;;;;14.00;12.90;;;19.50;99.90;;;;;;4973888;28;20434;-68
2021/06/10 05:52:30;;;;;;;15.23;13.53;;;19.70;99.90;;;;;;4983724;28;20176;-64
2021/06/10 05:54:55;;;;;;;12.97;11.97;;;19.80;99.90;;;;;;4983449;28;20520;-65
2021/06/10 05:57:21;;;;;;;14.50;13.40;;;20.00;99.90;;;;;;4980528;28;20251;-65
2021/06/10 05:59:48;;;;;;;14.60;13.10;;;20.20;99.90;;;;;;4986244;28;20204;-66
2021/06/10 06:02:14;;;;;;;13.57;12.40;;;20.40;99.90;;;;;;4991988;28;20172;-67
2021/06/10 06:04:41;;;;;;;15.90;14.50;;;20.50;99.90;;;;;;4992134;28;20462;-65
2021/06/10 06:07:07;;;;;;;15.60;12.80;;;20.60;99.90;;;;;;4991771;28;20457;-67
2021/06/10 06:09:35;;;;;;;14.00;12.80;;;20.70;99.90;;;;;;4991344;28;20466;-69
2021/06/10 06:12:00;;;;;;;13.73;12.53;;;20.90;99.90;;;;;;4991406;28;20171;-67
2021/06/10 06:14:30;;;;;;;13.00;12.00;;;20.80;99.90;;;;;;4991718;28;21067;-66
2021/06/10 06:16:56;;;;;;;13.30;12.23;;;21.00;99.90;;;;;;4962952;28;20179;-67
2021/06/10 06:19:21;;;;;;;12.47;11.37;;;21.30;99.90;;;;;;4966829;28;20842;-67
2021/06/10 06:21:47;;;;;;;11.90;10.90;;;21.60;99.90;;;;;;4972218;28;20211;-70
2021/06/10 06:24:13;;;;;;;13.63;12.40;;;21.70;99.90;;;;;;4972000;28;20176;-66
2021/06/10 06:26:38;;;;;;;12.93;11.73;;;21.90;99.90;;;;;;4947754;28;20566;-72
2021/06/10 06:29:04;;;;;;;11.10;10.17;;;22.10;99.90;;;;;;4950161;28;20206;-66
2021/06/10 06:31:30;;;;;;;11.80;10.80;;;22.30;99.90;;;;;;4972142;28;20173;-67
2021/06/10 06:33:57;;;;;;;11.13;10.33;;;22.50;99.90;;;;;;4971325;28;20822;-66
2021/06/10 06:36:22;;;;;;;20.33;11.53;;;22.50;99.90;;;;;;4971165;28;20451;-66
2021/06/10 06:38:48;;;;;;;10.57;9.57;;;22.70;99.90;;;;;;4970573;28;20817;-66
2021/06/10 06:41:14;;;;;;;10.63;9.73;;;22.80;99.90;;;;;;4968088;28;20180;-66
2021/06/10 06:43:40;;;;;;;11.13;10.17;;;22.90;99.90;;;;;;4959543;28;20542;-66
2021/06/10 06:46:06;;;;;;;10.37;9.57;;;23.10;99.90;;;;;;4952229;29;20431;-67
2021/06/10 06:48:35;;;;;;;9.40;8.73;;;23.20;99.90;;;;;;4969092;28;20288;-66
2021/06/10 06:51:01;;;;;;;11.00;9.90;;;23.30;99.90;;;;;;4972054;28;20502;-68
2021/06/10 06:53:29;;;;;;;10.33;9.50;;;23.50;99.90;;;;;;4967785;28;20985;-66
2021/06/10 06:55:56;;;;;;;11.13;10.23;;;23.60;99.90;;;;;;4955669;28;20188;-66
2021/06/10 06:58:22;;;;;;;10.13;9.27;;;23.80;99.90;;;;;;4955020;28;20471;-68
2021/06/10 07:00:47;;;;;;;10.20;9.30;;;23.80;99.90;;;;;;4970573;28;20466;-67
2021/06/10 07:03:13;;;;;;;11.03;10.10;;;23.90;99.90;;;;;;4967320;28;20176;-67
2021/06/10 07:05:38;;;;;;;10.20;9.50;;;24.10;99.90;;;;;;4970991;28;20239;-67
2021/06/10 07:08:04;;;;;;;10.40;9.67;;;23.80;99.90;;;;;;4968843;28;20208;-69
2021/06/10 07:10:29;;;;;;;10.03;9.33;;;23.80;99.90;;;;;;4967616;28;20193;-68
2021/06/10 07:12:55;;;;;;;9.57;8.87;;;23.90;99.90;;;;;;4952275;29;20375;-67
2021/06/10 07:15:21;;;;;;;10.30;9.60;;;24.20;99.90;;;;;;4955598;28;20220;-67
2021/06/10 07:17:47;;;;;;;11.00;9.97;;;24.50;99.90;;;;;;4970745;28;20204;-69
2021/06/10 07:20:13;;;;;;;10.13;9.43;;;24.60;99.90;;;;;;4956878;28;20464;-66
2021/06/10 07:22:39;;;;;;;9.70;8.90;;;24.80;99.90;;;;;;4951868;28;20181;-67
2021/06/10 07:25:06;;;;;;;10.37;9.57;;;24.90;99.90;;;;;;4961212;28;21043;-69
2021/06/10 07:27:31;;;;;;;10.53;9.83;;;24.80;99.90;;;;;;4970849;28;20188;-67
2021/06/10 07:29:59;;;;;;;11.07;10.27;;;24.20;99.90;;;;;;4971681;28;20433;-68
2021/06/10 07:32:24;;;;;;;11.10;10.23;;;23.80;99.90;;;;;;4971661;28;20211;-70
2021/06/10 07:34:50;;;;;;;11.00;10.20;;;23.90;99.90;;;;;;4972125;28;20431;-68
2021/06/10 07:37:15;;;;;;;9.77;9.07;;;24.40;99.90;;;;;;4971526;28;20531;-71
2021/06/10 07:39:41;;;;;;;10.97;10.20;;;24.80;99.90;;;;;;4971641;28;20593;-68
2021/06/10 07:42:07;;;;;;;9.63;8.80;;;25.40;99.90;;;;;;4971668;28;20228;-69
2021/06/10 07:44:32;;;;;;;9.40;8.80;;;25.70;99.90;;;;;;4971779;28;20284;-69
2021/06/10 07:46:58;;;;;;;9.10;8.50;;;25.80;99.90;;;;;;4968109;28;20509;-69
2021/06/10 07:49:23;;;;;;;11.37;10.57;;;26.00;99.90;;;;;;4951474;28;20492;-67
2021/06/10 07:51:49;;;;;;;10.23;9.53;;;25.80;99.90;;;;;;4963785;28;20192;-68
2021/06/10 07:54:14;;;;;;;10.00;9.20;;;25.70;99.90;;;;;;4971015;28;20271;-69
2021/06/10 07:56:40;;;;;;;11.03;9.93;;;25.80;99.90;;;;;;4971019;28;20187;-71
2021/06/10 07:59:06;;;;;;;10.20;9.40;;;26.00;99.90;;;;;;4973237;28;20279;-71
2021/06/10 08:01:32;;;;;;;9.40;8.70;;;25.90;99.90;;;;;;4974048;28;20180;-71
2021/06/10 08:03:57;;;;;;;10.27;9.47;;;25.80;99.90;;;;;;4972930;28;20232;-71
2021/06/10 08:06:23;;;;;;;11.53;10.40;;;25.90;99.90;;;;;;4963130;28;20247;-68
2021/06/10 08:08:49;;;;;;;10.40;9.60;;;26.00;99.90;;;;;;4973711;28;20271;-71
2021/06/10 08:11:14;;;;;;;10.63;9.83;;;26.40;99.90;;;;;;4960362;28;20362;-71
2021/06/10 08:13:40;;;;;;;12.30;11.27;;;26.60;99.90;;;;;;4954952;29;20460;-71
2021/06/10 08:16:06;;;;;;;10.87;9.83;;;27.00;99.90;;;;;;4964060;28;20176;-72
2021/06/10 08:18:32;;;;;;;11.50;10.67;;;27.20;99.90;;;;;;4964910;28;20220;-71
2021/06/10 08:20:59;;;;;;;15.47;14.27;;;27.00;99.90;;;;;;4954295;29;20444;-71
2021/06/10 08:23:26;;;;;;;12.13;11.23;;;27.30;99.90;;;;;;4954750;29;20173;-71
2021/06/10 08:25:54;;;;;;;12.00;10.87;;;27.40;99.90;;;;;;4954822;29;20543;-70
2021/06/10 08:28:20;;;;;;;11.60;10.70;;;27.30;99.90;;;;;;4953930;29;21074;-71
2021/06/10 08:30:45;;;;;;;13.33;12.33;;;27.40;99.90;;;;;;4954401;29;20421;-70
2021/06/10 08:33:11;;;;;;;12.80;11.80;;;27.30;99.90;;;;;;4954385;28;20172;-71
2021/06/10 08:35:37;;;;;;;11.00;10.20;;;27.50;99.90;;;;;;4954263;28;20180;-72
2021/06/10 08:38:06;;;;;;;12.23;11.43;;;27.60;99.90;;;;;;4953787;28;20217;-72
2021/06/10 08:40:32;;;;;;;10.57;9.73;;;27.60;99.90;;;;;;4954219;29;20250;-71
2021/06/10 08:42:58;;;;;;;12.80;11.60;;;27.80;99.90;;;;;;4954220;29;20416;-71
2021/06/10 08:45:27;;;;;;;10.93;10.10;;;27.90;99.90;;;;;;4954080;29;20413;-70
2021/06/10 08:47:53;;;;;;;11.50;10.70;;;28.10;99.90;;;;;;4953639;29;20605;-70
2021/06/10 08:50:23;;;;;;;11.10;10.37;;;28.30;99.90;;;;;;4953992;29;20483;-71
2021/06/10 08:52:56;;;;;;;13.07;12.00;;;28.20;99.90;;;;;;4972041;28;20929;-71
2021/06/10 08:55:23;;;;;;;11.47;10.60;;;27.80;99.90;;;;;;4973368;28;20463;-71
2021/06/10 08:57:50;;;;;;;12.80;11.80;;;27.80;99.90;;;;;;4972974;28;20470;-71
2021/06/10 09:00:16;;;;;;;12.57;11.57;;;28.00;99.90;;;;;;4973609;28;20941;-71
2021/06/10 09:02:50;;;;;;;12.97;11.97;;;28.10;99.90;;;;;;4973013;28;20428;-69
2021/06/10 09:05:18;;;;;;;12.57;11.33;;;28.20;99.90;;;;;;4972779;28;20430;-69
2021/06/10 09:07:52;;;;;;;12.27;11.47;;;28.50;99.90;;;;;;4972521;28;20435;-71
2021/06/10 09:10:21;;;;;;;12.03;11.13;;;28.70;99.90;;;;;;4973116;28;20411;-70
2021/06/10 09:12:51;;;;;;;11.77;10.77;;;28.80;99.90;;;;;;4972901;28;20913;-71
2021/06/10 09:15:19;;;;;;;14.47;13.40;;;29.00;99.90;;;;;;4972970;28;20423;-70
2021/06/10 09:17:45;;;;;;;11.80;11.00;;;29.20;99.90;;;;;;4972433;28;20566;-71
2021/06/10 09:20:21;;;;;;;12.70;11.80;;;29.40;99.90;;;;;;4972818;28;20466;-72
2021/06/10 09:22:51;;;;;;;12.50;11.60;;;29.70;99.90;;;;;;4973112;28;20462;-68
2021/06/10 09:25:20;;;;;;;14.60;13.47;;;29.50;99.50;;;;;;4973075;28;20483;-71
2021/06/10 09:28:01;;;;;;;13.17;12.07;;;29.50;99.20;;;;;;4972123;28;21081;-71
2021/06/10 09:30:27;;;;;;;13.87;12.63;;;29.20;99.40;;;;;;4972584;28;20423;-70
2021/06/10 09:32:53;;;;;;;13.63;12.60;;;29.40;99.10;;;;;;4972577;28;20428;-72
2021/06/10 09:35:26;;;;;;;14.47;13.27;;;29.60;99.00;;;;;;4972491;28;20446;-71
2021/06/10 09:37:57;;;;;;;14.53;13.57;;;29.60;98.90;;;;;;4971870;28;20216;-71
2021/06/10 09:40:23;;;;;;;15.27;14.03;;;29.60;98.80;;;;;;4967129;28;20551;-68
2021/06/10 09:42:49;;;;;;;14.43;13.37;;;30.10;97.70;;;;;;4971945;28;20555;-71
2021/06/10 09:45:18;;;;;;;15.47;14.37;;;30.10;97.30;;;;;;4961540;28;20180;-70
2021/06/10 09:47:50;;;;;;;14.90;13.90;;;30.30;96.70;;;;;;4951905;28;20440;-70
2021/06/10 09:50:30;;;;;;;14.80;13.70;;;30.40;96.60;;;;;;4965685;28;20454;-71
2021/06/10 09:52:59;;;;;;;14.73;13.27;;;31.20;96.10;;;;;;4972488;28;20431;-70
2021/06/10 09:55:41;;;;;;;14.50;13.20;;;31.80;95.70;;;;;;4972233;28;21003;-72
2021/06/10 09:58:26;;;;;;;15.70;14.60;;;32.20;94.10;;;;;;4971475;28;21014;-71
2021/06/10 10:00:56;;;;;;;16.20;14.90;;;32.70;92.50;;;;;;4971554;28;20470;-71
2021/06/10 10:03:25;;;;;;;14.37;13.47;;;33.00;91.50;;;;;;4958905;28;20419;-71
2021/06/10 10:05:52;;;;;;;15.93;14.77;;;32.80;90.30;;;;;;4970345;28;20506;-71
2021/06/10 10:08:18;;;;;;;16.10;15.00;;;32.60;90.40;;;;;;4970684;28;20435;-71
2021/06/10 10:10:44;;;;;;;15.73;14.47;;;31.90;91.00;;;;;;4971993;28;20824;-71
2021/06/10 10:13:14;;;;;;;14.30;13.20;;;31.30;91.60;;;;;;4971923;28;20172;-71
2021/06/10 10:15:40;;;;;;;15.83;14.83;;;30.90;91.80;;;;;;4971660;28;20176;-70
2021/06/10 10:18:06;;;;;;;17.93;16.63;;;30.40;92.30;;;;;;4971344;28;20805;-70
2021/06/10 10:20:32;;;;;;;17.10;15.70;;;30.50;91.30;;;;;;4971842;28;20557;-69
2021/06/10 10:22:58;;;;;;;15.93;14.83;;;30.20;91.20;;;;;;4971892;28;20412;-68
2021/06/10 10:25:25;;;;;;;18.83;17.33;;;29.90;92.30;;;;;;4971977;28;21163;-66
2021/06/10 10:27:51;;;;;;;16.70;15.50;;;29.20;92.70;;;;;;4970761;28;20549;-67
2021/06/10 10:30:21;;;;;;;18.47;17.17;;;28.30;93.90;;;;;;4971539;28;20416;-65
2021/06/10 10:32:47;;;;;;;19.27;17.70;;;27.50;94.90;;;;;;4971874;28;20466;-66
2021/06/10 10:35:30;;;;;;;19.87;18.43;;;27.00;96.00;;;;;;4969904;28;20427;-66
2021/06/10 10:37:56;;;;;;;18.07;16.77;;;26.80;96.50;;;;;;4951280;28;20823;-64
2021/06/10 10:40:28;;;;;;;17.70;16.20;;;26.40;97.50;;;;;;4952161;28;20448;-63
2021/06/10 10:43:13;;;;;;;17.23;16.13;;;26.30;98.10;;;;;;4952263;28;20451;-65
2021/06/10 10:45:45;;;;;;;16.30;15.00;;;26.10;99.10;;;;;;4952271;28;20417;-64
2021/06/10 10:48:15;;;;;;;18.30;16.73;;;25.80;99.90;;;;;;4968434;28;20486;-64
2021/06/10 10:50:41;;;;;;;17.67;16.40;;;25.60;99.90;;;;;;4971444;28;20432;-65
2021/06/10 10:53:15;;;;;;;16.43;15.03;;;25.80;99.90;;;;;;4970353;28;20430;-65
2021/06/10 10:55:42;;;;;;;14.93;13.70;;;26.70;99.90;;;;;;4960544;28;20929;-65
2021/06/10 10:58:20;;;;;;;17.37;16.07;;;28.40;98.80;;;;;;4966407;28;20446;-65
2021/06/10 11:00:58;;;;;;;16.20;15.20;;;29.60;96.30;;;;;;4975184;28;20495;-64
2021/06/10 11:03:44;;;;;;;17.07;15.80;;;31.50;93.50;;;;;;4975022;28;20933;-66
2021/06/10 11:06:22;;;;;;;15.07;14.10;;;33.60;87.60;;;;;;4975273;28;20702;-65
2021/06/10 11:09:00;;;;;;;17.27;16.27;;;35.40;81.30;;;;;;4974540;28;20435;-66
2021/06/10 11:11:52;;;;;;;14.80;13.80;;;35.30;75.20;;;;;;4975124;28;20415;-65
2021/06/10 11:14:37;;;;;;;14.33;13.43;;;36.00;73.10;;;;;;4974635;28;20419;-66
2021/06/10 11:17:22;;;;;;;16.30;15.23;;;36.20;72.10;;;;;;4973866;28;20972;-64
2021/06/10 11:19:52;;;;;;;14.87;13.97;;;37.10;68.90;;;;;;4970416;28;20462;-66
2021/06/10 11:22:39;;;;;;;15.07;14.03;;;37.80;66.60;;;;;;4969271;28;20489;-64
2021/06/10 11:25:15;;;;;;;14.90;13.90;;;38.30;64.60;;;;;;4974011;28;20430;-66
2021/06/10 11:27:46;;;;;;;14.30;13.27;;;36.80;63.90;;;;;;4974271;28;20478;-67
2021/06/10 11:30:30;;;;;;;15.50;14.50;;;36.80;64.30;;;;;;4974728;28;20451;-66
2021/06/10 11:32:58;;;;;;;14.73;13.63;;;37.20;62.40;;;;;;4974971;28;20515;-66
2021/06/10 11:35:45;;;;;;;13.70;12.60;;;37.50;58.60;;;;;;4962508;28;20451;-66
2021/06/10 11:38:13;;;;;;;14.60;13.70;;;36.50;59.10;;;;;;4975035;28;20455;-65
2021/06/10 11:40:40;;;;;;;15.67;14.67;;;34.10;61.40;;;;;;4985653;28;20461;-66
2021/06/10 11:43:11;;;;;;;16.23;15.17;;;32.60;64.60;;;;;;4974316;28;20437;-65
2021/06/10 11:45:38;;;;;;;15.20;13.90;;;31.60;67.40;;;;;;4974401;28;20450;-65
2021/06/10 11:48:05;;;;;;;15.70;14.60;;;31.00;69.60;;;;;;4973737;28;20448;-65
2021/06/10 11:50:38;;;;;;;16.10;15.10;;;30.20;72.60;;;;;;4974351;28;20427;-64
2021/06/10 11:53:17;;;;;;;18.80;17.13;;;30.10;74.30;;;;;;4974122;28;20423;-65
2021/06/10 11:55:44;;;;;;;16.70;15.40;;;29.50;77.20;;;;;;4974110;28;20419;-65
2021/06/10 11:58:12;;;;;;;18.40;16.90;;;29.30;78.80;;;;;;4973180;28;20529;-65
2021/06/10 12:00:41;;;;;;;18.87;17.47;;;28.90;79.10;;;;;;4973956;28;20546;-66
2021/06/10 12:03:10;;;;;;;17.90;16.70;;;28.70;80.80;;;;;;4974117;28;20999;-66
2021/06/10 12:05:50;;;;;;;19.87;18.30;;;28.70;81.50;;;;;;4974024;28;20438;-66
2021/06/10 12:08:16;;;;;;;19.10;17.57;;;28.50;81.20;;;;;;4973017;28;20447;-65
2021/06/10 12:10:54;;;;;;;16.30;15.23;;;28.60;81.90;;;;;;4964798;28;20432;-67
2021/06/10 12:13:42;;;;;;;18.67;16.73;;;28.90;80.90;;;;;;4954644;28;20187;-65
2021/06/10 12:16:12;;;;;;;19.33;17.70;;;30.50;79.10;;;;;;4963730;28;20438;-67
2021/06/10 12:18:40;;;;;;;19.80;18.50;;;31.00;76.60;;;;;;4972966;28;20439;-66
2021/06/10 12:21:08;;;;;;;19.17;17.77;;;30.90;75.80;;;;;;4973673;28;20422;-65
2021/06/10 12:23:48;;;;;;;18.50;17.20;;;30.40;76.90;;;;;;4973779;28;20420;-65
2021/06/10 12:26:15;;;;;;;18.97;17.70;;;31.60;75.20;;;;;;4973646;28;20423;-66
2021/06/10 12:28:45;;;;;;;20.20;18.77;;;33.80;70.50;;;;;;4972783;28;21033;-66
2021/06/10 12:31:17;;;;;;;17.77;16.63;;;35.90;66.80;;;;;;4973609;28;20424;-66
2021/06/10 12:33:54;;;;;;;17.47;16.37;;;35.30;63.50;;;;;;4973683;28;20487;-66